VBD205 SUMU-SBPA
Flight info
| Callsign | VBD205 |
|---|---|
| Flight time | 1h 46m |
| Altitude | 12000 |
| Route | MOLBI UM540 ILTOG |
| Aircraft | TBM9/L-SDFGRWY/S |
Departure
| Time | 2026-04-25 14:52 |
|---|---|
| Airport | Carrasco General Cesáreo L. Berisso International Airport (SUMU) |
Arrival
| Time | 2026-04-25 16:38 |
|---|---|
| Airport | Porto Alegre-Salgado Filho International Airport (SBPA) |
| Time | Latitude | Longitude | Altitude | Speed | Heading |
|---|---|---|---|---|---|
| 2026-04-25 14:39 | -34.84056 | -56.02778 | 68 ft | 0 kts | 85° |
| 2026-04-25 14:50 | -34.84065 | -56.02773 | 66 ft | 7 kts | 214° |
| 2026-04-25 14:50 | -34.84016 | -56.02809 | 68 ft | 11 kts | 309° |
| 2026-04-25 14:50 | -34.84011 | -56.02913 | 67 ft | 14 kts | 270° |
| 2026-04-25 14:50 | -34.84011 | -56.02962 | 66 ft | 0 kts | 271° |
| 2026-04-25 14:51 | -34.84011 | -56.02978 | 66 ft | 9 kts | 268° |
| 2026-04-25 14:51 | -34.83936 | -56.03085 | 63 ft | 29 kts | 9° |
| 2026-04-25 14:51 | -34.83644 | -56.03092 | 66 ft | 66 kts | 0° |
| 2026-04-25 14:52 | -34.83001 | -56.03062 | 257 ft | 97 kts | 12° |
| 2026-04-25 14:52 | -34.82481 | -56.02565 | 685 ft | 111 kts | 74° |
| 2026-04-25 14:52 | -34.82222 | -56.01600 | 1021 ft | 133 kts | 51° |
| 2026-04-25 14:52 | -34.81760 | -56.01056 | 1257 ft | 147 kts | 41° |
| 2026-04-25 14:53 | -34.80669 | -55.99843 | 1751 ft | 169 kts | 43° |
| 2026-04-25 14:53 | -34.79758 | -55.98849 | 2122 ft | 181 kts | 42° |
| 2026-04-25 14:53 | -34.78791 | -55.97799 | 2490 ft | 191 kts | 42° |
| 2026-04-25 14:53 | -34.77784 | -55.96711 | 2852 ft | 196 kts | 42° |
| 2026-04-25 14:54 | -34.76755 | -55.95595 | 3207 ft | 199 kts | 42° |
| 2026-04-25 14:54 | -34.75708 | -55.94464 | 3564 ft | 203 kts | 42° |
| 2026-04-25 14:54 | -34.74642 | -55.93313 | 3917 ft | 207 kts | 42° |
| 2026-04-25 14:54 | -34.73563 | -55.92145 | 4266 ft | 208 kts | 42° |
| 2026-04-25 14:55 | -34.72478 | -55.90973 | 4616 ft | 209 kts | 42° |
| 2026-04-25 14:55 | -34.71387 | -55.89797 | 4966 ft | 210 kts | 42° |
| 2026-04-25 14:55 | -34.70296 | -55.88621 | 5313 ft | 210 kts | 42° |
| 2026-04-25 14:55 | -34.69203 | -55.87442 | 5661 ft | 210 kts | 42° |
| 2026-04-25 14:56 | -34.68107 | -55.86261 | 6008 ft | 211 kts | 42° |
| 2026-04-25 14:56 | -34.67008 | -55.85078 | 6357 ft | 211 kts | 42° |
| 2026-04-25 14:56 | -34.65906 | -55.83892 | 6706 ft | 212 kts | 42° |
| 2026-04-25 14:56 | -34.64803 | -55.82702 | 7054 ft | 212 kts | 42° |
| 2026-04-25 14:57 | -34.63696 | -55.81511 | 7401 ft | 213 kts | 42° |
| 2026-04-25 14:57 | -34.62602 | -55.80333 | 7744 ft | 213 kts | 42° |
| 2026-04-25 14:57 | -34.61489 | -55.79136 | 8094 ft | 214 kts | 42° |
| 2026-04-25 14:57 | -34.60373 | -55.77936 | 8442 ft | 215 kts | 42° |
| 2026-04-25 14:58 | -34.59253 | -55.76732 | 8790 ft | 215 kts | 42° |
| 2026-04-25 14:58 | -34.58132 | -55.75528 | 9138 ft | 216 kts | 42° |
| 2026-04-25 14:58 | -34.57006 | -55.74319 | 9487 ft | 216 kts | 42° |
| 2026-04-25 14:58 | -34.55878 | -55.73107 | 9835 ft | 217 kts | 42° |
| 2026-04-25 14:59 | -34.54746 | -55.71893 | 10184 ft | 217 kts | 41° |
| 2026-04-25 14:59 | -34.53611 | -55.70675 | 10532 ft | 218 kts | 42° |
| 2026-04-25 14:59 | -34.52473 | -55.69454 | 10880 ft | 219 kts | 42° |
| 2026-04-25 14:59 | -34.51330 | -55.68230 | 11227 ft | 219 kts | 42° |
| 2026-04-25 15:00 | -34.50187 | -55.67003 | 11576 ft | 220 kts | 42° |
| 2026-04-25 15:00 | -34.49039 | -55.65775 | 11916 ft | 221 kts | 42° |
| 2026-04-25 15:00 | -34.47852 | -55.64499 | 11953 ft | 235 kts | 42° |
| 2026-04-25 15:00 | -34.46606 | -55.63157 | 11959 ft | 244 kts | 42° |
| 2026-04-25 15:01 | -34.45319 | -55.61778 | 11964 ft | 249 kts | 42° |
| 2026-04-25 15:01 | -34.44012 | -55.60379 | 11964 ft | 253 kts | 42° |
| 2026-04-25 15:01 | -34.42686 | -55.58963 | 11968 ft | 255 kts | 42° |
| 2026-04-25 15:01 | -34.41356 | -55.57541 | 11967 ft | 256 kts | 42° |
| 2026-04-25 15:02 | -34.40018 | -55.56112 | 11965 ft | 257 kts | 42° |
| 2026-04-25 15:02 | -34.38677 | -55.54680 | 11966 ft | 257 kts | 42° |
| 2026-04-25 15:02 | -34.37334 | -55.53247 | 11965 ft | 257 kts | 42° |
| 2026-04-25 15:02 | -34.35990 | -55.51814 | 11963 ft | 257 kts | 42° |
| 2026-04-25 15:03 | -34.34647 | -55.50382 | 11961 ft | 258 kts | 42° |
| 2026-04-25 15:03 | -34.33301 | -55.48948 | 11996 ft | 258 kts | 41° |
| 2026-04-25 15:03 | -34.31946 | -55.47507 | 11997 ft | 261 kts | 42° |
| 2026-04-25 15:03 | -34.30573 | -55.46045 | 11997 ft | 265 kts | 42° |
| 2026-04-25 15:04 | -34.29653 | -55.45065 | 11997 ft | 267 kts | 42° |
| 2026-04-25 15:04 | -34.28256 | -55.43580 | 11997 ft | 268 kts | 41° |
| 2026-04-25 15:04 | -34.26850 | -55.42088 | 11997 ft | 269 kts | 41° |
| 2026-04-25 15:04 | -34.25440 | -55.40591 | 11996 ft | 270 kts | 41° |
| 2026-04-25 15:05 | -34.24027 | -55.39092 | 11996 ft | 270 kts | 41° |
| 2026-04-25 15:05 | -34.22613 | -55.37593 | 11996 ft | 270 kts | 42° |
| 2026-04-25 15:05 | -34.21198 | -55.36093 | 11996 ft | 271 kts | 41° |
| 2026-04-25 15:06 | -34.18369 | -55.33096 | 11988 ft | 271 kts | 41° |
| 2026-04-25 15:06 | -34.16954 | -55.31597 | 11996 ft | 271 kts | 41° |
| 2026-04-25 15:06 | -34.15537 | -55.30098 | 11996 ft | 271 kts | 41° |
| 2026-04-25 15:06 | -34.14120 | -55.28602 | 11995 ft | 271 kts | 41° |
| 2026-04-25 15:07 | -34.12704 | -55.27104 | 11992 ft | 271 kts | 41° |
| 2026-04-25 15:07 | -34.11289 | -55.25608 | 11993 ft | 271 kts | 41° |
| 2026-04-25 15:07 | -34.09869 | -55.24110 | 11995 ft | 271 kts | 41° |
| 2026-04-25 15:07 | -34.08455 | -55.22616 | 11992 ft | 271 kts | 41° |
| 2026-04-25 15:08 | -34.07038 | -55.21119 | 11996 ft | 271 kts | 41° |
| 2026-04-25 15:08 | -34.05619 | -55.19624 | 11996 ft | 271 kts | 41° |
| 2026-04-25 15:08 | -34.04264 | -55.18045 | 12005 ft | 271 kts | 50° |
| 2026-04-25 15:08 | -34.03103 | -55.16258 | 12004 ft | 271 kts | 51° |
| 2026-04-25 15:09 | -34.01798 | -55.14626 | 11996 ft | 271 kts | 41° |
| 2026-04-25 15:09 | -34.00333 | -55.13194 | 11996 ft | 271 kts | 39° |
| 2026-04-25 15:09 | -33.97459 | -55.10249 | 11997 ft | 271 kts | 42° |
| 2026-04-25 15:10 | -33.96045 | -55.08748 | 11996 ft | 271 kts | 41° |
| 2026-04-25 15:10 | -33.94621 | -55.07263 | 11992 ft | 271 kts | 41° |
| 2026-04-25 15:10 | -33.91774 | -55.04294 | 11996 ft | 271 kts | 41° |
| 2026-04-25 15:11 | -33.90394 | -55.02851 | 11996 ft | 271 kts | 41° |
| 2026-04-25 15:11 | -33.89105 | -55.01506 | 11996 ft | 271 kts | 41° |
| 2026-04-25 15:11 | -33.87681 | -55.00022 | 11996 ft | 271 kts | 41° |
| 2026-04-25 15:12 | -33.84834 | -54.97054 | 11997 ft | 271 kts | 41° |
| 2026-04-25 15:12 | -33.83429 | -54.95590 | 11996 ft | 271 kts | 41° |
| 2026-04-25 15:12 | -33.82005 | -54.94107 | 11996 ft | 271 kts | 41° |
| 2026-04-25 15:12 | -33.81043 | -54.93107 | 11995 ft | 271 kts | 41° |
| 2026-04-25 15:13 | -33.79159 | -54.91147 | 11996 ft | 270 kts | 41° |
| 2026-04-25 15:13 | -33.76312 | -54.88186 | 11995 ft | 271 kts | 41° |
| 2026-04-25 15:13 | -33.74888 | -54.86706 | 11996 ft | 271 kts | 41° |
| 2026-04-25 15:14 | -33.73459 | -54.85224 | 11995 ft | 271 kts | 41° |
| 2026-04-25 15:14 | -33.72034 | -54.83746 | 11996 ft | 271 kts | 41° |
| 2026-04-25 15:14 | -33.70609 | -54.82266 | 11996 ft | 271 kts | 41° |
| 2026-04-25 15:14 | -33.69183 | -54.80788 | 11996 ft | 271 kts | 41° |
| 2026-04-25 15:15 | -33.67757 | -54.79310 | 11990 ft | 271 kts | 41° |
| 2026-04-25 15:15 | -33.66333 | -54.77834 | 11997 ft | 271 kts | 41° |
| 2026-04-25 15:15 | -33.64907 | -54.76357 | 11996 ft | 271 kts | 41° |
| 2026-04-25 15:15 | -33.63479 | -54.74881 | 11990 ft | 271 kts | 41° |
| 2026-04-25 15:16 | -33.62055 | -54.73407 | 11990 ft | 271 kts | 41° |
| 2026-04-25 15:16 | -33.60629 | -54.71931 | 11996 ft | 271 kts | 41° |
| 2026-04-25 15:16 | -33.57775 | -54.68983 | 11996 ft | 271 kts | 41° |
| 2026-04-25 15:17 | -33.54924 | -54.66039 | 11997 ft | 271 kts | 41° |
| 2026-04-25 15:17 | -33.53496 | -54.64566 | 11997 ft | 271 kts | 41° |
| 2026-04-25 15:17 | -33.52071 | -54.63096 | 11996 ft | 271 kts | 41° |
| 2026-04-25 15:18 | -33.50644 | -54.61625 | 11996 ft | 271 kts | 41° |
| 2026-04-25 15:18 | -33.47791 | -54.58687 | 11996 ft | 271 kts | 41° |
| 2026-04-25 15:18 | -33.46362 | -54.57214 | 11996 ft | 271 kts | 41° |
| 2026-04-25 15:19 | -33.44933 | -54.55746 | 11993 ft | 271 kts | 41° |
| 2026-04-25 15:19 | -33.43987 | -54.54772 | 11996 ft | 271 kts | 41° |
| 2026-04-25 15:19 | -33.42077 | -54.52808 | 11994 ft | 271 kts | 41° |
| 2026-04-25 15:19 | -33.40649 | -54.51341 | 11996 ft | 271 kts | 41° |
| 2026-04-25 15:20 | -33.39240 | -54.49893 | 11996 ft | 271 kts | 41° |
| 2026-04-25 15:20 | -33.37810 | -54.48426 | 11995 ft | 271 kts | 41° |
| 2026-04-25 15:20 | -33.36384 | -54.46962 | 11997 ft | 270 kts | 41° |
| 2026-04-25 15:20 | -33.34955 | -54.45497 | 11996 ft | 271 kts | 41° |
| 2026-04-25 15:21 | -33.33526 | -54.44030 | 11995 ft | 271 kts | 41° |
| 2026-04-25 15:21 | -33.32096 | -54.42565 | 11994 ft | 271 kts | 41° |
| 2026-04-25 15:21 | -33.30667 | -54.41102 | 11990 ft | 271 kts | 41° |
| 2026-04-25 15:21 | -33.29237 | -54.39638 | 11996 ft | 270 kts | 41° |
| 2026-04-25 15:22 | -33.27808 | -54.38175 | 11995 ft | 271 kts | 41° |
| 2026-04-25 15:22 | -33.26378 | -54.36712 | 11996 ft | 271 kts | 41° |
| 2026-04-25 15:22 | -33.24949 | -54.35249 | 11996 ft | 271 kts | 41° |
| 2026-04-25 15:22 | -33.23517 | -54.33789 | 11996 ft | 271 kts | 41° |
| 2026-04-25 15:23 | -33.22086 | -54.32326 | 11995 ft | 271 kts | 41° |
| 2026-04-25 15:23 | -33.20655 | -54.30863 | 11997 ft | 271 kts | 41° |
| 2026-04-25 15:23 | -33.19223 | -54.29404 | 11996 ft | 271 kts | 41° |
| 2026-04-25 15:23 | -33.17793 | -54.27943 | 11992 ft | 271 kts | 41° |
| 2026-04-25 15:24 | -33.16361 | -54.26485 | 11997 ft | 270 kts | 41° |
| 2026-04-25 15:24 | -33.14931 | -54.25026 | 11996 ft | 270 kts | 41° |
| 2026-04-25 15:24 | -33.13502 | -54.23568 | 11996 ft | 271 kts | 41° |
| 2026-04-25 15:24 | -33.12535 | -54.22584 | 11995 ft | 270 kts | 41° |
| 2026-04-25 15:25 | -33.10639 | -54.20655 | 11984 ft | 271 kts | 41° |
| 2026-04-25 15:25 | -33.09208 | -54.19199 | 11995 ft | 271 kts | 41° |
| 2026-04-25 15:25 | -33.07774 | -54.17739 | 11984 ft | 271 kts | 41° |
| 2026-04-25 15:25 | -33.06341 | -54.16285 | 11996 ft | 270 kts | 41° |
| 2026-04-25 15:26 | -33.04911 | -54.14831 | 11997 ft | 270 kts | 41° |
| 2026-04-25 15:26 | -33.03480 | -54.13374 | 11996 ft | 270 kts | 41° |
| 2026-04-25 15:26 | -33.02046 | -54.11921 | 11996 ft | 271 kts | 41° |
| 2026-04-25 15:26 | -33.00614 | -54.10467 | 11996 ft | 271 kts | 41° |
| 2026-04-25 15:27 | -32.99177 | -54.09011 | 11991 ft | 271 kts | 41° |
| 2026-04-25 15:27 | -32.97744 | -54.07557 | 11996 ft | 270 kts | 41° |
| 2026-04-25 15:27 | -32.94878 | -54.04653 | 11995 ft | 271 kts | 41° |
| 2026-04-25 15:28 | -32.93445 | -54.03202 | 11995 ft | 271 kts | 41° |
| 2026-04-25 15:28 | -32.92011 | -54.01749 | 11991 ft | 271 kts | 41° |
| 2026-04-25 15:28 | -32.90576 | -54.00298 | 11996 ft | 271 kts | 41° |
| 2026-04-25 15:28 | -32.89141 | -53.98847 | 11996 ft | 271 kts | 41° |
| 2026-04-25 15:29 | -32.87706 | -53.97397 | 11996 ft | 271 kts | 41° |
| 2026-04-25 15:29 | -32.86271 | -53.95949 | 11997 ft | 271 kts | 41° |
| 2026-04-25 15:29 | -32.84838 | -53.94499 | 11996 ft | 271 kts | 41° |
| 2026-04-25 15:29 | -32.83403 | -53.93050 | 11997 ft | 271 kts | 40° |
| 2026-04-25 15:30 | -32.82450 | -53.92091 | 11996 ft | 271 kts | 41° |
| 2026-04-25 15:30 | -32.80531 | -53.90155 | 11993 ft | 271 kts | 41° |
| 2026-04-25 15:30 | -32.79096 | -53.88707 | 11995 ft | 271 kts | 41° |
| 2026-04-25 15:30 | -32.77660 | -53.87260 | 11997 ft | 271 kts | 41° |
| 2026-04-25 15:31 | -32.76224 | -53.85814 | 11996 ft | 271 kts | 41° |
| 2026-04-25 15:31 | -32.74788 | -53.84367 | 11996 ft | 271 kts | 41° |
| 2026-04-25 15:31 | -32.73350 | -53.82922 | 11996 ft | 271 kts | 40° |
| 2026-04-25 15:31 | -32.71914 | -53.81476 | 11990 ft | 271 kts | 41° |
| 2026-04-25 15:32 | -32.70477 | -53.80033 | 11996 ft | 270 kts | 41° |
| 2026-04-25 15:32 | -32.69042 | -53.78589 | 11996 ft | 270 kts | 41° |
| 2026-04-25 15:32 | -32.67606 | -53.77147 | 11995 ft | 270 kts | 40° |
| 2026-04-25 15:33 | -32.64737 | -53.74267 | 11997 ft | 270 kts | 40° |
| 2026-04-25 15:33 | -32.63300 | -53.72827 | 11992 ft | 271 kts | 40° |
| 2026-04-25 15:33 | -32.61865 | -53.71384 | 11996 ft | 271 kts | 41° |
| 2026-04-25 15:33 | -32.60444 | -53.69961 | 11995 ft | 270 kts | 40° |
| 2026-04-25 15:34 | -32.59008 | -53.68522 | 11996 ft | 270 kts | 40° |
| 2026-04-25 15:34 | -32.57573 | -53.67085 | 11996 ft | 270 kts | 40° |
| 2026-04-25 15:34 | -32.56137 | -53.65646 | 11996 ft | 270 kts | 40° |
| 2026-04-25 15:34 | -32.55651 | -53.65160 | 11986 ft | 270 kts | 40° |
| 2026-04-25 15:35 | -32.51822 | -53.61332 | 11991 ft | 271 kts | 40° |
| 2026-04-25 15:35 | -32.50383 | -53.59893 | 11996 ft | 271 kts | 40° |
| 2026-04-25 15:35 | -32.48944 | -53.58455 | 11990 ft | 271 kts | 40° |
| 2026-04-25 15:36 | -32.46068 | -53.55585 | 11995 ft | 271 kts | 40° |
| 2026-04-25 15:36 | -32.44628 | -53.54148 | 11996 ft | 271 kts | 40° |
| 2026-04-25 15:36 | -32.43190 | -53.52712 | 11988 ft | 271 kts | 40° |
| 2026-04-25 15:37 | -32.41749 | -53.51278 | 11995 ft | 271 kts | 40° |
| 2026-04-25 15:37 | -32.40309 | -53.49842 | 11997 ft | 271 kts | 40° |
| 2026-04-25 15:37 | -32.38868 | -53.48408 | 11997 ft | 270 kts | 40° |
| 2026-04-25 15:37 | -32.37430 | -53.46976 | 11997 ft | 271 kts | 40° |
| 2026-04-25 15:38 | -32.35990 | -53.45541 | 11996 ft | 271 kts | 40° |
| 2026-04-25 15:38 | -32.34547 | -53.44110 | 11996 ft | 271 kts | 40° |
| 2026-04-25 15:38 | -32.33106 | -53.42674 | 11995 ft | 271 kts | 40° |
| 2026-04-25 15:38 | -32.31664 | -53.41240 | 11997 ft | 271 kts | 40° |
| 2026-04-25 15:39 | -32.30219 | -53.39807 | 11991 ft | 271 kts | 40° |
| 2026-04-25 15:39 | -32.28775 | -53.38373 | 11992 ft | 271 kts | 40° |
| 2026-04-25 15:39 | -32.27334 | -53.36942 | 11983 ft | 271 kts | 40° |
| 2026-04-25 15:39 | -32.25891 | -53.35512 | 11996 ft | 271 kts | 40° |
| 2026-04-25 15:40 | -32.24449 | -53.34080 | 11995 ft | 271 kts | 40° |
| 2026-04-25 15:40 | -32.23960 | -53.33595 | 11997 ft | 271 kts | 40° |
| 2026-04-25 15:40 | -32.21557 | -53.31215 | 11997 ft | 271 kts | 40° |
| 2026-04-25 15:40 | -32.20110 | -53.29780 | 11995 ft | 272 kts | 40° |
| 2026-04-25 15:41 | -32.18662 | -53.28347 | 11997 ft | 271 kts | 40° |
| 2026-04-25 15:41 | -32.17215 | -53.26920 | 11997 ft | 271 kts | 40° |
| 2026-04-25 15:41 | -32.15771 | -53.25489 | 11997 ft | 271 kts | 40° |
| 2026-04-25 15:41 | -32.14328 | -53.24061 | 11996 ft | 271 kts | 40° |
| 2026-04-25 15:42 | -32.12883 | -53.22634 | 11996 ft | 271 kts | 40° |
| 2026-04-25 15:42 | -32.11437 | -53.21205 | 11996 ft | 271 kts | 40° |
| 2026-04-25 15:42 | -32.09990 | -53.19776 | 11996 ft | 271 kts | 40° |
| 2026-04-25 15:42 | -32.08542 | -53.18347 | 11996 ft | 272 kts | 40° |
| 2026-04-25 15:43 | -32.07095 | -53.16918 | 11991 ft | 272 kts | 40° |
| 2026-04-25 15:43 | -32.05646 | -53.15490 | 11997 ft | 271 kts | 40° |
| 2026-04-25 15:43 | -32.04197 | -53.14063 | 11997 ft | 271 kts | 40° |
| 2026-04-25 15:43 | -32.02748 | -53.12636 | 11996 ft | 271 kts | 40° |
| 2026-04-25 15:44 | -32.01320 | -53.11228 | 11996 ft | 271 kts | 40° |
| 2026-04-25 15:44 | -31.99875 | -53.09805 | 11996 ft | 271 kts | 40° |
| 2026-04-25 15:44 | -31.98427 | -53.08380 | 11997 ft | 271 kts | 40° |
| 2026-04-25 15:44 | -31.96980 | -53.06958 | 11995 ft | 271 kts | 40° |
| 2026-04-25 15:45 | -31.95534 | -53.05537 | 11991 ft | 271 kts | 40° |
| 2026-04-25 15:45 | -31.94090 | -53.04116 | 11983 ft | 270 kts | 40° |
| 2026-04-25 15:45 | -31.92645 | -53.02698 | 11997 ft | 270 kts | 40° |
| 2026-04-25 15:45 | -31.92158 | -53.02220 | 11996 ft | 270 kts | 40° |
| 2026-04-25 15:46 | -31.89758 | -52.99862 | 11998 ft | 271 kts | 40° |
| 2026-04-25 15:46 | -31.88308 | -52.98441 | 11997 ft | 271 kts | 40° |
| 2026-04-25 15:46 | -31.86862 | -52.97023 | 11999 ft | 271 kts | 40° |
| 2026-04-25 15:46 | -31.85414 | -52.95602 | 11995 ft | 271 kts | 40° |
| 2026-04-25 15:47 | -31.83966 | -52.94181 | 11996 ft | 271 kts | 40° |
| 2026-04-25 15:47 | -31.82516 | -52.92764 | 11992 ft | 271 kts | 40° |
| 2026-04-25 15:47 | -31.81067 | -52.91344 | 11996 ft | 271 kts | 40° |
| 2026-04-25 15:47 | -31.79616 | -52.89925 | 11995 ft | 271 kts | 40° |
| 2026-04-25 15:48 | -31.78169 | -52.88510 | 11996 ft | 271 kts | 40° |
| 2026-04-25 15:48 | -31.76723 | -52.87095 | 11990 ft | 270 kts | 40° |
| 2026-04-25 15:48 | -31.75276 | -52.85683 | 11990 ft | 270 kts | 40° |
| 2026-04-25 15:48 | -31.73830 | -52.84268 | 11997 ft | 271 kts | 40° |
| 2026-04-25 15:49 | -31.72381 | -52.82853 | 11996 ft | 271 kts | 40° |
| 2026-04-25 15:49 | -31.70929 | -52.81437 | 11997 ft | 271 kts | 40° |
| 2026-04-25 15:49 | -31.69479 | -52.80024 | 11996 ft | 271 kts | 40° |
| 2026-04-25 15:49 | -31.68030 | -52.78606 | 11996 ft | 271 kts | 40° |
| 2026-04-25 15:50 | -31.66580 | -52.77189 | 11996 ft | 271 kts | 40° |
| 2026-04-25 15:50 | -31.65125 | -52.75776 | 11997 ft | 271 kts | 40° |
| 2026-04-25 15:50 | -31.63672 | -52.74363 | 11997 ft | 271 kts | 40° |
| 2026-04-25 15:50 | -31.62711 | -52.73425 | 11996 ft | 271 kts | 40° |
| 2026-04-25 15:51 | -31.60768 | -52.71533 | 11996 ft | 271 kts | 40° |
| 2026-04-25 15:51 | -31.60298 | -52.71076 | 11994 ft | 271 kts | 40° |
| 2026-04-25 15:51 | -31.58356 | -52.69187 | 11997 ft | 271 kts | 40° |
| 2026-04-25 15:51 | -31.56906 | -52.67777 | 11997 ft | 271 kts | 40° |
| 2026-04-25 15:52 | -31.55451 | -52.66364 | 11995 ft | 271 kts | 40° |
| 2026-04-25 15:52 | -31.53999 | -52.64955 | 11996 ft | 271 kts | 40° |
| 2026-04-25 15:52 | -31.52078 | -52.63086 | 11992 ft | 271 kts | 40° |
| 2026-04-25 15:52 | -31.51097 | -52.62134 | 11986 ft | 271 kts | 40° |
| 2026-04-25 15:53 | -31.49642 | -52.60726 | 11986 ft | 272 kts | 40° |
| 2026-04-25 15:53 | -31.48188 | -52.59314 | 11997 ft | 272 kts | 40° |
| 2026-04-25 15:53 | -31.46735 | -52.57905 | 11997 ft | 272 kts | 40° |
| 2026-04-25 15:53 | -31.45278 | -52.56493 | 11996 ft | 271 kts | 40° |
| 2026-04-25 15:54 | -31.43824 | -52.55084 | 11996 ft | 271 kts | 40° |
| 2026-04-25 15:54 | -31.42371 | -52.53676 | 11997 ft | 271 kts | 40° |
| 2026-04-25 15:54 | -31.40916 | -52.52271 | 11997 ft | 271 kts | 40° |
| 2026-04-25 15:54 | -31.39462 | -52.50865 | 11997 ft | 271 kts | 40° |
| 2026-04-25 15:55 | -31.38010 | -52.49458 | 11997 ft | 271 kts | 40° |
| 2026-04-25 15:55 | -31.36553 | -52.48052 | 11995 ft | 272 kts | 40° |
| 2026-04-25 15:55 | -31.35095 | -52.46647 | 11996 ft | 272 kts | 40° |
| 2026-04-25 15:55 | -31.33641 | -52.45236 | 11996 ft | 271 kts | 40° |
| 2026-04-25 15:56 | -31.32186 | -52.43833 | 11996 ft | 271 kts | 40° |
| 2026-04-25 15:56 | -31.30729 | -52.42428 | 11997 ft | 271 kts | 40° |
| 2026-04-25 15:56 | -31.29273 | -52.41024 | 11993 ft | 271 kts | 40° |
| 2026-04-25 15:56 | -31.27819 | -52.39620 | 11995 ft | 271 kts | 40° |
| 2026-04-25 15:57 | -31.26363 | -52.38219 | 11997 ft | 271 kts | 40° |
| 2026-04-25 15:57 | -31.24907 | -52.36817 | 11996 ft | 271 kts | 40° |
| 2026-04-25 15:57 | -31.23452 | -52.35416 | 11994 ft | 271 kts | 40° |
| 2026-04-25 15:57 | -31.21998 | -52.34014 | 11985 ft | 271 kts | 40° |
| 2026-04-25 15:58 | -31.20561 | -52.32632 | 11996 ft | 271 kts | 40° |
| 2026-04-25 15:58 | -31.19105 | -52.31231 | 11996 ft | 271 kts | 40° |
| 2026-04-25 15:58 | -31.17649 | -52.29832 | 11988 ft | 271 kts | 40° |
| 2026-04-25 15:58 | -31.16190 | -52.28432 | 11997 ft | 271 kts | 40° |
| 2026-04-25 15:59 | -31.14734 | -52.27031 | 11996 ft | 271 kts | 40° |
| 2026-04-25 15:59 | -31.13276 | -52.25633 | 11997 ft | 271 kts | 40° |
| 2026-04-25 15:59 | -31.11818 | -52.24232 | 11997 ft | 271 kts | 40° |
| 2026-04-25 15:59 | -31.10361 | -52.22832 | 11995 ft | 271 kts | 40° |
| 2026-04-25 16:00 | -31.08902 | -52.21433 | 11992 ft | 271 kts | 40° |
| 2026-04-25 16:00 | -31.07916 | -52.20490 | 11996 ft | 271 kts | 40° |
| 2026-04-25 16:00 | -31.05988 | -52.18640 | 11997 ft | 271 kts | 40° |
| 2026-04-25 16:00 | -31.04530 | -52.17247 | 11996 ft | 271 kts | 40° |
| 2026-04-25 16:01 | -31.03075 | -52.15853 | 11996 ft | 271 kts | 40° |
| 2026-04-25 16:01 | -31.01619 | -52.14459 | 11989 ft | 271 kts | 40° |
| 2026-04-25 16:01 | -31.00163 | -52.13066 | 11996 ft | 271 kts | 40° |
| 2026-04-25 16:01 | -30.98709 | -52.11675 | 11991 ft | 271 kts | 40° |
| 2026-04-25 16:02 | -30.97253 | -52.10284 | 11993 ft | 271 kts | 40° |
| 2026-04-25 16:02 | -30.95798 | -52.08892 | 11992 ft | 271 kts | 40° |
| 2026-04-25 16:02 | -30.94342 | -52.07503 | 11996 ft | 271 kts | 40° |
| 2026-04-25 16:02 | -30.92884 | -52.06111 | 11996 ft | 271 kts | 40° |
| 2026-04-25 16:03 | -30.91428 | -52.04721 | 11997 ft | 271 kts | 40° |
| 2026-04-25 16:03 | -30.89972 | -52.03331 | 11997 ft | 271 kts | 40° |
| 2026-04-25 16:03 | -30.88513 | -52.01940 | 11996 ft | 271 kts | 40° |
| 2026-04-25 16:03 | -30.87052 | -52.00548 | 11996 ft | 271 kts | 40° |
| 2026-04-25 16:04 | -30.85591 | -51.99157 | 11996 ft | 271 kts | 40° |
| 2026-04-25 16:04 | -30.84132 | -51.97766 | 11987 ft | 271 kts | 40° |
| 2026-04-25 16:04 | -30.82672 | -51.96377 | 11994 ft | 271 kts | 40° |
| 2026-04-25 16:04 | -30.81212 | -51.94989 | 11997 ft | 271 kts | 40° |
| 2026-04-25 16:05 | -30.79753 | -51.93599 | 11996 ft | 271 kts | 40° |
| 2026-04-25 16:05 | -30.78293 | -51.92212 | 11996 ft | 271 kts | 40° |
| 2026-04-25 16:05 | -30.75375 | -51.89439 | 11995 ft | 271 kts | 39° |
| 2026-04-25 16:06 | -30.73915 | -51.88052 | 11998 ft | 271 kts | 40° |
| 2026-04-25 16:06 | -30.72455 | -51.86667 | 11996 ft | 271 kts | 40° |
| 2026-04-25 16:06 | -30.70995 | -51.85279 | 11996 ft | 271 kts | 40° |
| 2026-04-25 16:06 | -30.69535 | -51.83893 | 11996 ft | 271 kts | 40° |
| 2026-04-25 16:07 | -30.68075 | -51.82510 | 11994 ft | 271 kts | 40° |
| 2026-04-25 16:07 | -30.67105 | -51.81594 | 11996 ft | 271 kts | 39° |
| 2026-04-25 16:07 | -30.65152 | -51.79743 | 11996 ft | 271 kts | 40° |
| 2026-04-25 16:07 | -30.63691 | -51.78358 | 11996 ft | 271 kts | 39° |
| 2026-04-25 16:08 | -30.62229 | -51.76974 | 11996 ft | 271 kts | 40° |
| 2026-04-25 16:08 | -30.60770 | -51.75591 | 11997 ft | 271 kts | 40° |
| 2026-04-25 16:08 | -30.59307 | -51.74208 | 11991 ft | 271 kts | 39° |
| 2026-04-25 16:08 | -30.57847 | -51.72828 | 11992 ft | 271 kts | 39° |
| 2026-04-25 16:09 | -30.56383 | -51.71447 | 11987 ft | 271 kts | 40° |
| 2026-04-25 16:09 | -30.54921 | -51.70062 | 11998 ft | 271 kts | 39° |
| 2026-04-25 16:09 | -30.53456 | -51.68682 | 11997 ft | 271 kts | 39° |
| 2026-04-25 16:09 | -30.51993 | -51.67299 | 11998 ft | 271 kts | 39° |
| 2026-04-25 16:10 | -30.50530 | -51.65919 | 11984 ft | 271 kts | 39° |
| 2026-04-25 16:10 | -30.49068 | -51.64538 | 11991 ft | 271 kts | 39° |
| 2026-04-25 16:10 | -30.47623 | -51.63178 | 11997 ft | 271 kts | 39° |
| 2026-04-25 16:10 | -30.46139 | -51.61779 | 11995 ft | 271 kts | 39° |
| 2026-04-25 16:11 | -30.44695 | -51.60416 | 11996 ft | 271 kts | 39° |
| 2026-04-25 16:11 | -30.43230 | -51.59041 | 11997 ft | 271 kts | 39° |
| 2026-04-25 16:11 | -30.41768 | -51.57663 | 11995 ft | 271 kts | 39° |
| 2026-04-25 16:11 | -30.40304 | -51.56287 | 11997 ft | 271 kts | 39° |
| 2026-04-25 16:12 | -30.38844 | -51.54910 | 11998 ft | 271 kts | 39° |
| 2026-04-25 16:12 | -30.37379 | -51.53534 | 11996 ft | 271 kts | 39° |
| 2026-04-25 16:12 | -30.35916 | -51.52157 | 11987 ft | 271 kts | 39° |
| 2026-04-25 16:12 | -30.34927 | -51.51229 | 11996 ft | 271 kts | 39° |
| 2026-04-25 16:13 | -30.32988 | -51.49412 | 11996 ft | 271 kts | 39° |
| 2026-04-25 16:13 | -30.31522 | -51.48032 | 11994 ft | 271 kts | 39° |
| 2026-04-25 16:13 | -30.30059 | -51.46657 | 11997 ft | 271 kts | 39° |
| 2026-04-25 16:13 | -30.28589 | -51.45281 | 11991 ft | 271 kts | 39° |
| 2026-04-25 16:14 | -30.27062 | -51.44017 | 11986 ft | 270 kts | 26° |
| 2026-04-25 16:14 | -30.25247 | -51.43514 | 11980 ft | 269 kts | 4° |
| 2026-04-25 16:14 | -30.23373 | -51.43496 | 11997 ft | 269 kts | 1° |
| 2026-04-25 16:14 | -30.21477 | -51.43386 | 11682 ft | 279 kts | 6° |
| 2026-04-25 16:15 | -30.19511 | -51.43094 | 11168 ft | 289 kts | 9° |
| 2026-04-25 16:15 | -30.17500 | -51.42772 | 10637 ft | 293 kts | 7° |
| 2026-04-25 16:15 | -30.15466 | -51.42538 | 10115 ft | 295 kts | 5° |
| 2026-04-25 16:15 | -30.13428 | -51.42303 | 9592 ft | 294 kts | 7° |
| 2026-04-25 16:16 | -30.11400 | -51.42027 | 9065 ft | 293 kts | 7° |
| 2026-04-25 16:16 | -30.09379 | -51.41762 | 8533 ft | 292 kts | 7° |
| 2026-04-25 16:16 | -30.07419 | -51.41217 | 8035 ft | 290 kts | 22° |
| 2026-04-25 16:16 | -30.05595 | -51.40344 | 7497 ft | 269 kts | 22° |
| 2026-04-25 16:17 | -30.03927 | -51.39635 | 6914 ft | 245 kts | 20° |
| 2026-04-25 16:17 | -30.02355 | -51.38967 | 6086 ft | 237 kts | 23° |
| 2026-04-25 16:17 | -30.00980 | -51.37968 | 5282 ft | 232 kts | 42° |
| 2026-04-25 16:17 | -29.99949 | -51.36564 | 4477 ft | 228 kts | 59° |
| 2026-04-25 16:18 | -29.99330 | -51.34902 | 3674 ft | 225 kts | 76° |
| 2026-04-25 16:18 | -29.99222 | -51.34332 | 3414 ft | 225 kts | 81° |
| 2026-04-25 16:18 | -29.99204 | -51.31337 | 2105 ft | 222 kts | 92° |
| 2026-04-25 16:18 | -29.99229 | -51.29668 | 1910 ft | 196 kts | 91° |
| 2026-04-25 16:19 | -29.99249 | -51.28181 | 1680 ft | 177 kts | 92° |
| 2026-04-25 16:19 | -29.99286 | -51.26849 | 1591 ft | 155 kts | 92° |
| 2026-04-25 16:19 | -29.99303 | -51.25703 | 1582 ft | 131 kts | 91° |
| 2026-04-25 16:20 | -29.99329 | -51.23985 | 1564 ft | 87 kts | 92° |
| 2026-04-25 16:20 | -29.99343 | -51.23302 | 1455 ft | 84 kts | 92° |
| 2026-04-25 16:20 | -29.99338 | -51.22132 | 1513 ft | 68 kts | 89° |
| 2026-04-25 16:21 | -29.99363 | -51.21528 | 1637 ft | 83 kts | 93° |
| 2026-04-25 16:21 | -29.99394 | -51.20809 | 1635 ft | 98 kts | 92° |
| 2026-04-25 16:21 | -29.99418 | -51.19996 | 1620 ft | 107 kts | 95° |
| 2026-04-25 16:21 | -29.99589 | -51.19151 | 1610 ft | 110 kts | 119° |
| 2026-04-25 16:22 | -29.99941 | -51.18344 | 1528 ft | 116 kts | 116° |
| 2026-04-25 16:22 | -30.00499 | -51.17725 | 1415 ft | 115 kts | 168° |
| 2026-04-25 16:22 | -30.01246 | -51.17935 | 1388 ft | 111 kts | 207° |
| 2026-04-25 16:22 | -30.01705 | -51.18571 | 1384 ft | 106 kts | 264° |
| 2026-04-25 16:23 | -30.01630 | -51.19409 | 1385 ft | 105 kts | 271° |
| 2026-04-25 16:23 | -30.01757 | -51.20243 | 1382 ft | 107 kts | 252° |
| 2026-04-25 16:23 | -30.01992 | -51.21037 | 1456 ft | 101 kts | 253° |
| 2026-04-25 16:23 | -30.02211 | -51.21789 | 1577 ft | 98 kts | 252° |
| 2026-04-25 16:24 | -30.02434 | -51.22557 | 1607 ft | 105 kts | 253° |
| 2026-04-25 16:24 | -30.02660 | -51.23360 | 1600 ft | 105 kts | 252° |
| 2026-04-25 16:24 | -30.02891 | -51.24153 | 1601 ft | 104 kts | 252° |
| 2026-04-25 16:24 | -30.03052 | -51.24959 | 1604 ft | 103 kts | 264° |
| 2026-04-25 16:25 | -30.03151 | -51.25778 | 1601 ft | 103 kts | 262° |
| 2026-04-25 16:25 | -30.03186 | -51.26054 | 1601 ft | 103 kts | 263° |
| 2026-04-25 16:25 | -30.03355 | -51.27412 | 1600 ft | 103 kts | 263° |
| 2026-04-25 16:25 | -30.03457 | -51.28233 | 1597 ft | 104 kts | 263° |
| 2026-04-25 16:26 | -30.03559 | -51.29055 | 1597 ft | 103 kts | 263° |
| 2026-04-25 16:26 | -30.03661 | -51.29874 | 1598 ft | 103 kts | 262° |
| 2026-04-25 16:26 | -30.03762 | -51.30693 | 1600 ft | 103 kts | 263° |
| 2026-04-25 16:26 | -30.03866 | -51.31526 | 1601 ft | 107 kts | 263° |
| 2026-04-25 16:27 | -30.03884 | -51.32384 | 1600 ft | 107 kts | 274° |
| 2026-04-25 16:27 | -30.03861 | -51.33237 | 1600 ft | 107 kts | 272° |
| 2026-04-25 16:27 | -30.03829 | -51.34101 | 1594 ft | 107 kts | 273° |
| 2026-04-25 16:27 | -30.03803 | -51.34945 | 1596 ft | 105 kts | 272° |
| 2026-04-25 16:28 | -30.03776 | -51.35797 | 1599 ft | 108 kts | 273° |
| 2026-04-25 16:28 | -30.03751 | -51.36665 | 1601 ft | 109 kts | 272° |
| 2026-04-25 16:28 | -30.03724 | -51.37539 | 1594 ft | 108 kts | 273° |
| 2026-04-25 16:28 | -30.03696 | -51.38398 | 1591 ft | 106 kts | 273° |
| 2026-04-25 16:29 | -30.03668 | -51.39239 | 1588 ft | 104 kts | 272° |
| 2026-04-25 16:29 | -30.03639 | -51.40073 | 1586 ft | 104 kts | 272° |
| 2026-04-25 16:29 | -30.03614 | -51.40903 | 1584 ft | 103 kts | 272° |
| 2026-04-25 16:29 | -30.03588 | -51.41731 | 1582 ft | 103 kts | 273° |
| 2026-04-25 16:30 | -30.03532 | -51.42570 | 1592 ft | 108 kts | 287° |
| 2026-04-25 16:30 | -30.02969 | -51.43084 | 1593 ft | 111 kts | 356° |
| 2026-04-25 16:30 | -30.02299 | -51.42686 | 1601 ft | 113 kts | 44° |
| 2026-04-25 16:30 | -30.01758 | -51.42030 | 1598 ft | 112 kts | 56° |
| 2026-04-25 16:31 | -30.01518 | -51.41201 | 1595 ft | 108 kts | 71° |
| 2026-04-25 16:31 | -30.01092 | -51.40497 | 1588 ft | 107 kts | 52° |
| 2026-04-25 16:31 | -30.00644 | -51.39812 | 1589 ft | 107 kts | 52° |
| 2026-04-25 16:31 | -30.00186 | -51.39134 | 1589 ft | 107 kts | 52° |
| 2026-04-25 16:32 | -29.99718 | -51.38456 | 1596 ft | 110 kts | 51° |
| 2026-04-25 16:32 | -29.99237 | -51.37757 | 1597 ft | 112 kts | 54° |
| 2026-04-25 16:32 | -29.99047 | -51.36910 | 1599 ft | 111 kts | 94° |
| 2026-04-25 16:32 | -29.99079 | -51.36020 | 1600 ft | 112 kts | 91° |
| 2026-04-25 16:33 | -29.99105 | -51.35130 | 1594 ft | 109 kts | 93° |
| 2026-04-25 16:33 | -29.99125 | -51.34262 | 1599 ft | 111 kts | 91° |
| 2026-04-25 16:33 | -29.99140 | -51.33365 | 1591 ft | 111 kts | 92° |
| 2026-04-25 16:33 | -29.99159 | -51.32477 | 1598 ft | 112 kts | 92° |
| 2026-04-25 16:34 | -29.99179 | -51.31577 | 1597 ft | 113 kts | 92° |
| 2026-04-25 16:34 | -29.99195 | -51.30676 | 1595 ft | 112 kts | 92° |
| 2026-04-25 16:34 | -29.99212 | -51.29782 | 1591 ft | 110 kts | 91° |
| 2026-04-25 16:34 | -29.99231 | -51.28896 | 1593 ft | 111 kts | 92° |
| 2026-04-25 16:35 | -29.99250 | -51.28015 | 1574 ft | 110 kts | 92° |
| 2026-04-25 16:35 | -29.99264 | -51.27102 | 1463 ft | 119 kts | 92° |
| 2026-04-25 16:35 | -29.99287 | -51.26163 | 1360 ft | 112 kts | 91° |
| 2026-04-25 16:35 | -29.99302 | -51.25294 | 1222 ft | 105 kts | 92° |
| 2026-04-25 16:36 | -29.99316 | -51.24490 | 1086 ft | 96 kts | 91° |
| 2026-04-25 16:36 | -29.99320 | -51.24231 | 1044 ft | 95 kts | 92° |
| 2026-04-25 16:36 | -29.99347 | -51.22997 | 841 ft | 91 kts | 92° |
| 2026-04-25 16:36 | -29.99361 | -51.22270 | 722 ft | 90 kts | 92° |
| 2026-04-25 16:37 | -29.99376 | -51.21542 | 601 ft | 92 kts | 92° |
| 2026-04-25 16:37 | -29.99392 | -51.20813 | 477 ft | 90 kts | 92° |
| 2026-04-25 16:37 | -29.99406 | -51.20091 | 363 ft | 90 kts | 92° |
| 2026-04-25 16:37 | -29.99412 | -51.19611 | 283 ft | 90 kts | 91° |
| 2026-04-25 16:38 | -29.99429 | -51.18890 | 164 ft | 90 kts | 92° |
| 2026-04-25 16:38 | -29.99442 | -51.18174 | 47 ft | 89 kts | 92° |
| 2026-04-25 16:38 | -29.99473 | -51.17494 | 21 ft | 76 kts | 104° |
| 2026-04-25 16:38 | -29.99454 | -51.17218 | 23 ft | 12 kts | 105° |
| 2026-04-25 16:39 | -29.99459 | -51.17176 | 23 ft | 0 kts | 81° |
| 2026-04-25 16:39 | -29.99459 | -51.17173 | 23 ft | 3 kts | 83° |
| 2026-04-25 16:39 | -29.99463 | -51.17108 | 23 ft | 11 kts | 94° |
| 2026-04-25 16:39 | -29.99464 | -51.17009 | 22 ft | 14 kts | 90° |
| 2026-04-25 16:40 | -29.99466 | -51.16888 | 24 ft | 16 kts | 90° |
| 2026-04-25 16:40 | -29.99453 | -51.16756 | 26 ft | 17 kts | 46° |
| 2026-04-25 16:40 | -29.99366 | -51.16740 | 27 ft | 0 kts | 0° |
| 2026-04-25 16:40 | -29.99351 | -51.16741 | 27 ft | 12 kts | 357° |
| 2026-04-25 16:41 | -29.99272 | -51.16862 | 27 ft | 33 kts | 265° |
| 2026-04-25 16:41 | -29.99270 | -51.17061 | 25 ft | 39 kts | 273° |
| 2026-04-25 16:41 | -29.99105 | -51.17394 | 22 ft | 1 kts | 16° |